Time;durP1;ratioP1;P1;durP2;ratioP2;P2;SDS_P1;SDS_P2;PMS_P1;PMS_P2;Temp;Humidity;BMP_temperature;BMP_pressure;BME280_temperature;BME280_humidity;BME280_pressure;Samples;Min_cycle;Max_cycle;Signal;HPM_P1;HPM_P2
2021/09/25 00:00:58;;;;;;;8.63;6.15;;;;;;;;;;780323;178;928361;-69
2021/09/25 00:03:24;;;;;;;7.10;5.90;;;;;;;;;;782763;177;939556;-69
2021/09/25 00:05:49;;;;;;;7.90;5.63;;;;;;;;;;779464;178;918863;-70
2021/09/25 00:08:15;;;;;;;8.60;6.40;;;;;;;;;;766607;182;917922;-69
2021/09/25 00:10:41;;;;;;;8.93;6.63;;;;;;;;;;763779;181;919395;-69
2021/09/25 00:13:07;;;;;;;8.40;6.73;;;;;;;;;;779030;177;913446;-69
2021/09/25 00:15:33;;;;;;;11.30;6.47;;;;;;;;;;776927;179;919309;-69
2021/09/25 00:17:59;;;;;;;9.00;6.23;;;;;;;;;;775678;178;917387;-71
2021/09/25 00:20:24;;;;;;;8.10;5.20;;;;;;;;;;776376;179;919122;-69
2021/09/25 00:22:50;;;;;;;8.90;6.67;;;;;;;;;;780629;178;919755;-70
2021/09/25 00:25:16;;;;;;;9.80;6.18;;;;;;;;;;782744;179;917853;-69
2021/09/25 00:27:43;;;;;;;7.00;5.90;;;;;;;;;;762062;181;918160;-70
2021/09/25 00:30:08;;;;;;;6.73;5.67;;;;;;;;;;777436;179;919137;-69
2021/09/25 00:32:34;;;;;;;11.47;7.83;;;;;;;;;;786400;178;919173;-68
2021/09/25 00:35:00;;;;;;;9.03;6.17;;;;;;;;;;768393;174;919099;-70
2021/09/25 00:37:26;;;;;;;8.60;6.60;;;;;;;;;;762716;179;919901;-70
2021/09/25 00:39:52;;;;;;;11.50;6.63;;;;;;;;;;773109;180;924634;-69
2021/09/25 00:42:17;;;;;;;8.90;7.40;;;;;;;;;;772896;180;918420;-70
2021/09/25 00:44:43;;;;;;;7.70;6.40;;;;;;;;;;771914;180;920183;-71
2021/09/25 00:47:11;;;;;;;9.82;6.85;;;;;;;;;;773130;177;920510;-70
2021/09/25 00:49:35;;;;;;;8.43;6.80;;;;;;;;;;770661;179;919327;-70
2021/09/25 00:52:01;;;;;;;10.50;6.87;;;;;;;;;;768587;179;919271;-70
2021/09/25 00:54:27;;;;;;;8.63;6.17;;;;;;;;;;774480;176;918929;-70
2021/09/25 00:56:53;;;;;;;8.33;6.10;;;;;;;;;;787673;176;919552;-70
2021/09/25 00:59:19;;;;;;;11.30;7.20;;;;;;;;;;759613;180;2148804;-70
2021/09/25 01:01:44;;;;;;;19.40;6.57;;;;;;;;;;767184;179;918934;-70
2021/09/25 01:04:10;;;;;;;9.47;7.50;;;;;;;;;;785599;177;922439;-70
2021/09/25 01:06:36;;;;;;;7.90;5.90;;;;;;;;;;762800;180;922810;-69
2021/09/25 01:09:02;;;;;;;11.43;8.10;;;;;;;;;;770985;179;923463;-70
2021/09/25 01:11:28;;;;;;;8.83;7.10;;;;;;;;;;780532;176;917710;-70
2021/09/25 01:13:54;;;;;;;10.68;7.72;;;;;;;;;;778961;179;919496;-70
2021/09/25 01:16:20;;;;;;;10.33;8.00;;;;;;;;;;771727;180;920892;-70
2021/09/25 01:18:45;;;;;;;8.65;7.80;;;;;;;;;;779669;178;918851;-70
2021/09/25 01:21:14;;;;;;;13.47;7.00;;;;;;;;;;787138;176;917933;-70
2021/09/25 01:23:40;;;;;;;11.73;8.33;;;;;;;;;;780500;176;918969;-70
2021/09/25 01:26:06;;;;;;;9.83;7.60;;;;;;;;;;765127;180;921734;-70
2021/09/25 01:28:31;;;;;;;9.40;7.70;;;;;;;;;;787028;178;916407;-70
2021/09/25 01:30:57;;;;;;;9.27;7.83;;;;;;;;;;760315;182;919859;-70
2021/09/25 01:33:24;;;;;;;8.07;7.23;;;;;;;;;;776409;178;919969;-70
2021/09/25 01:35:50;;;;;;;10.17;8.17;;;;;;;;;;768448;179;918674;-70
2021/09/25 01:38:16;;;;;;;17.30;7.93;;;;;;;;;;779413;179;916706;-70
2021/09/25 01:40:41;;;;;;;15.30;7.20;;;;;;;;;;773722;180;919275;-70
2021/09/25 01:43:07;;;;;;;10.47;7.23;;;;;;;;;;775922;177;916757;-70
2021/09/25 01:45:33;;;;;;;10.05;8.43;;;;;;;;;;781901;178;919341;-70
2021/09/25 01:47:59;;;;;;;14.70;7.53;;;;;;;;;;763976;181;920277;-70
2021/09/25 01:50:25;;;;;;;8.33;7.17;;;;;;;;;;782330;178;918157;-70
2021/09/25 01:52:51;;;;;;;9.87;6.57;;;;;;;;;;777373;178;918919;-70
2021/09/25 01:55:17;;;;;;;14.27;6.67;;;;;;;;;;780248;177;918143;-69
2021/09/25 01:57:42;;;;;;;10.33;7.50;;;;;;;;;;770148;179;920795;-70
2021/09/25 02:00:09;;;;;;;9.47;7.80;;;;;;;;;;767309;180;919383;-70
2021/09/25 02:02:35;;;;;;;8.60;6.30;;;;;;;;;;773801;180;919234;-70
2021/09/25 02:05:00;;;;;;;8.70;6.67;;;;;;;;;;772870;180;918267;-70
2021/09/25 02:07:26;;;;;;;8.00;6.33;;;;;;;;;;765297;180;913802;-70
2021/09/25 02:09:52;;;;;;;7.73;6.90;;;;;;;;;;768235;180;913434;-71
2021/09/25 02:12:18;;;;;;;7.90;6.70;;;;;;;;;;778730;180;895651;-70
2021/09/25 02:14:44;;;;;;;8.57;6.83;;;;;;;;;;777479;179;620334;-70
2021/09/25 02:17:10;;;;;;;8.63;6.63;;;;;;;;;;769470;180;915357;-70
2021/09/25 02:19:35;;;;;;;7.70;6.77;;;;;;;;;;775837;180;918934;-70
2021/09/25 02:22:01;;;;;;;9.30;7.10;;;;;;;;;;784970;178;919109;-70
2021/09/25 02:24:27;;;;;;;13.55;7.25;;;;;;;;;;768543;179;920825;-69
2021/09/25 02:26:53;;;;;;;11.30;7.90;;;;;;;;;;780838;180;919283;-70
2021/09/25 02:29:19;;;;;;;8.00;6.73;;;;;;;;;;761869;180;911332;-69
2021/09/25 02:31:45;;;;;;;11.07;7.80;;;;;;;;;;761901;180;909770;-70
2021/09/25 02:34:10;;;;;;;9.73;8.60;;;;;;;;;;772424;183;632674;-70
2021/09/25 02:36:36;;;;;;;8.37;6.83;;;;;;;;;;781117;180;634495;-69
2021/09/25 02:39:02;;;;;;;8.40;6.30;;;;;;;;;;788464;176;627223;-69
2021/09/25 02:41:28;;;;;;;11.63;7.57;;;;;;;;;;794068;176;618534;-69
2021/09/25 02:43:54;;;;;;;9.37;7.33;;;;;;;;;;777455;174;918495;-69
2021/09/25 02:46:20;;;;;;;11.40;7.70;;;;;;;;;;766041;180;918967;-70
2021/09/25 02:48:46;;;;;;;7.93;7.13;;;;;;;;;;783920;178;916566;-70
2021/09/25 02:51:11;;;;;;;8.43;6.87;;;;;;;;;;782849;175;920773;-70
2021/09/25 02:53:37;;;;;;;9.27;7.10;;;;;;;;;;778252;179;916133;-70
2021/09/25 02:56:03;;;;;;;9.27;7.20;;;;;;;;;;780094;175;916209;-70
2021/09/25 02:58:29;;;;;;;10.27;8.50;;;;;;;;;;783016;178;914910;-70
2021/09/25 03:00:55;;;;;;;9.30;7.77;;;;;;;;;;772094;179;915496;-70
2021/09/25 03:03:20;;;;;;;7.57;6.70;;;;;;;;;;781860;178;915713;-70
2021/09/25 03:05:46;;;;;;;10.53;7.30;;;;;;;;;;786851;179;919213;-69
2021/09/25 03:08:12;;;;;;;10.83;7.50;;;;;;;;;;774864;180;935758;-69
2021/09/25 03:10:38;;;;;;;16.10;8.60;;;;;;;;;;763887;178;918935;-70
2021/09/25 03:13:04;;;;;;;9.17;7.37;;;;;;;;;;765003;182;919073;-70
2021/09/25 03:15:30;;;;;;;14.80;8.93;;;;;;;;;;773406;180;921434;-69
2021/09/25 03:17:55;;;;;;;9.50;8.45;;;;;;;;;;782647;178;921933;-69
2021/09/25 03:20:21;;;;;;;8.73;7.03;;;;;;;;;;768489;181;918222;-69
2021/09/25 03:22:47;;;;;;;12.67;8.97;;;;;;;;;;773739;180;918503;-69
2021/09/25 03:25:14;;;;;;;11.23;7.90;;;;;;;;;;777827;177;919198;-70
2021/09/25 03:27:39;;;;;;;8.07;6.83;;;;;;;;;;770945;180;918367;-69
2021/09/25 03:30:06;;;;;;;9.83;8.13;;;;;;;;;;788467;178;917806;-70
2021/09/25 03:32:31;;;;;;;9.07;7.27;;;;;;;;;;762607;182;919036;-70
2021/09/25 03:34:57;;;;;;;9.90;8.20;;;;;;;;;;777979;179;919689;-70
2021/09/25 03:37:23;;;;;;;9.40;7.33;;;;;;;;;;772502;180;918983;-70
2021/09/25 03:39:49;;;;;;;14.57;8.17;;;;;;;;;;778068;178;918655;-70
2021/09/25 03:42:15;;;;;;;11.55;8.13;;;;;;;;;;763414;179;919141;-70
2021/09/25 03:44:41;;;;;;;12.87;7.93;;;;;;;;;;780414;178;919467;-68
2021/09/25 03:47:07;;;;;;;9.63;7.97;;;;;;;;;;779855;179;919543;-70
2021/09/25 03:49:32;;;;;;;9.97;7.80;;;;;;;;;;772732;180;919302;-69
2021/09/25 03:51:58;;;;;;;9.70;7.40;;;;;;;;;;775716;176;922271;-70
2021/09/25 03:54:24;;;;;;;12.07;8.00;;;;;;;;;;789111;178;919095;-69
2021/09/25 03:56:50;;;;;;;9.10;7.53;;;;;;;;;;773262;179;918369;-69
2021/09/25 03:59:16;;;;;;;11.07;8.20;;;;;;;;;;781693;178;1021061;-69
2021/09/25 04:01:42;;;;;;;11.05;7.78;;;;;;;;;;798256;174;917967;-69
2021/09/25 04:04:07;;;;;;;11.60;8.80;;;;;;;;;;760386;181;918983;-70
2021/09/25 04:06:33;;;;;;;10.33;8.47;;;;;;;;;;766757;180;920367;-69
2021/09/25 04:08:59;;;;;;;8.90;7.67;;;;;;;;;;766986;181;918563;-70
2021/09/25 04:11:25;;;;;;;10.80;7.73;;;;;;;;;;774472;179;921187;-69
2021/09/25 04:13:51;;;;;;;10.70;8.40;;;;;;;;;;775688;180;918569;-70
2021/09/25 04:16:17;;;;;;;11.60;8.95;;;;;;;;;;762245;180;919086;-70
2021/09/25 04:18:43;;;;;;;10.17;8.20;;;;;;;;;;779893;180;919706;-69
2021/09/25 04:21:08;;;;;;;12.53;9.00;;;;;;;;;;767670;178;918773;-69
2021/09/25 04:23:34;;;;;;;9.98;8.68;;;;;;;;;;776631;180;919647;-69
2021/09/25 04:26:00;;;;;;;10.43;7.90;;;;;;;;;;773969;180;920077;-69
2021/09/25 04:28:26;;;;;;;9.67;8.33;;;;;;;;;;767820;180;919278;-69
2021/09/25 04:30:52;;;;;;;9.17;8.00;;;;;;;;;;769479;177;920611;-69
2021/09/25 04:33:18;;;;;;;10.10;8.40;;;;;;;;;;777832;180;1017855;-70
2021/09/25 04:35:43;;;;;;;9.87;7.33;;;;;;;;;;763524;180;915280;-69
2021/09/25 04:38:09;;;;;;;10.73;8.50;;;;;;;;;;774528;179;916115;-69
2021/09/25 04:40:35;;;;;;;10.83;7.70;;;;;;;;;;769653;180;919183;-69
2021/09/25 04:43:01;;;;;;;10.73;8.10;;;;;;;;;;765882;183;918764;-70
2021/09/25 04:45:27;;;;;;;8.03;7.17;;;;;;;;;;759640;180;919328;-70
2021/09/25 04:47:53;;;;;;;10.48;8.27;;;;;;;;;;774637;177;918970;-70
2021/09/25 04:50:18;;;;;;;13.57;9.00;;;;;;;;;;779125;179;918113;-69
2021/09/25 04:52:44;;;;;;;10.80;7.73;;;;;;;;;;775464;179;918363;-69
2021/09/25 04:55:10;;;;;;;9.27;8.20;;;;;;;;;;785765;175;918499;-69
2021/09/25 04:57:36;;;;;;;10.33;7.80;;;;;;;;;;779318;180;919227;-70
2021/09/25 05:00:02;;;;;;;9.98;7.50;;;;;;;;;;770249;180;919820;-69
2021/09/25 05:02:28;;;;;;;9.73;7.40;;;;;;;;;;760059;179;918988;-70
2021/09/25 05:04:53;;;;;;;11.50;8.20;;;;;;;;;;765678;180;918790;-68
2021/09/25 05:07:19;;;;;;;7.63;6.83;;;;;;;;;;771539;179;918867;-70
2021/09/25 05:09:45;;;;;;;9.80;8.10;;;;;;;;;;776251;178;918785;-69
2021/09/25 05:12:11;;;;;;;17.40;9.13;;;;;;;;;;763082;180;918395;-69
2021/09/25 05:14:38;;;;;;;11.13;8.60;;;;;;;;;;779261;179;918014;-69
2021/09/25 05:17:03;;;;;;;13.53;8.77;;;;;;;;;;774182;180;919431;-69
2021/09/25 05:19:29;;;;;;;8.87;7.47;;;;;;;;;;761945;181;1020661;-69
2021/09/25 05:21:55;;;;;;;8.17;7.30;;;;;;;;;;771459;180;918235;-70
2021/09/25 05:24:20;;;;;;;10.30;7.80;;;;;;;;;;774490;179;920804;-69
2021/09/25 05:26:46;;;;;;;11.97;7.67;;;;;;;;;;775475;180;918879;-70
2021/09/25 05:29:12;;;;;;;8.30;6.90;;;;;;;;;;779892;180;919204;-69
2021/09/25 05:31:38;;;;;;;10.20;7.30;;;;;;;;;;771716;180;918763;-69
2021/09/25 05:34:04;;;;;;;10.40;8.03;;;;;;;;;;762071;182;919279;-69
2021/09/25 05:36:30;;;;;;;8.97;7.17;;;;;;;;;;761763;180;918539;-69
2021/09/25 05:38:55;;;;;;;17.03;8.73;;;;;;;;;;785173;178;920423;-70
2021/09/25 05:41:21;;;;;;;14.77;9.30;;;;;;;;;;780601;178;918974;-69
2021/09/25 05:43:51;;;;;;;11.67;9.10;;;;;;;;;;770171;179;919924;-69
2021/09/25 05:46:13;;;;;;;11.33;7.73;;;;;;;;;;774169;179;918601;-69
2021/09/25 05:48:39;;;;;;;10.83;6.67;;;;;;;;;;766453;179;919153;-68
2021/09/25 05:51:05;;;;;;;12.23;8.10;;;;;;;;;;769243;179;936146;-69
2021/09/25 05:53:30;;;;;;;7.67;6.50;;;;;;;;;;773136;179;918824;-69
2021/09/25 05:55:56;;;;;;;8.60;6.87;;;;;;;;;;763794;180;918860;-69
2021/09/25 05:58:22;;;;;;;11.63;7.50;;;;;;;;;;766002;179;919621;-69
2021/09/25 06:00:48;;;;;;;8.70;7.60;;;;;;;;;;769631;180;918181;-69
2021/09/25 06:03:15;;;;;;;8.63;7.00;;;;;;;;;;773663;179;918470;-69
2021/09/25 06:05:40;;;;;;;10.00;7.27;;;;;;;;;;776423;178;919372;-70
2021/09/25 06:08:05;;;;;;;11.43;6.60;;;;;;;;;;779104;178;919251;-69
2021/09/25 06:10:31;;;;;;;11.63;7.30;;;;;;;;;;777394;179;918377;-69
2021/09/25 06:12:57;;;;;;;10.07;7.60;;;;;;;;;;758062;180;919464;-70
2021/09/25 06:15:23;;;;;;;10.63;7.60;;;;;;;;;;769114;180;1179813;-69
2021/09/25 06:17:49;;;;;;;11.20;7.50;;;;;;;;;;782920;178;917668;-69
2021/09/25 06:20:15;;;;;;;7.37;6.20;;;;;;;;;;760977;182;919701;-69
2021/09/25 06:22:41;;;;;;;10.97;7.40;;;;;;;;;;777720;179;918962;-69
2021/09/25 06:25:07;;;;;;;12.82;6.93;;;;;;;;;;783316;178;919173;-69
2021/09/25 06:27:33;;;;;;;9.07;7.60;;;;;;;;;;768400;179;919398;-69
2021/09/25 06:30:00;;;;;;;15.93;7.53;;;;;;;;;;774446;174;917984;-70
2021/09/25 06:32:26;;;;;;;8.50;7.53;;;;;;;;;;759974;179;919032;-70
2021/09/25 06:34:52;;;;;;;9.63;8.23;;;;;;;;;;786272;177;919432;-68
2021/09/25 06:37:18;;;;;;;12.10;8.50;;;;;;;;;;757288;182;919047;-70
2021/09/25 06:39:43;;;;;;;9.80;7.60;;;;;;;;;;769050;179;1036726;-69
2021/09/25 06:42:09;;;;;;;10.43;7.80;;;;;;;;;;783317;174;918613;-69
2021/09/25 06:44:35;;;;;;;10.43;7.50;;;;;;;;;;761863;181;918799;-69
2021/09/25 06:47:01;;;;;;;8.03;6.60;;;;;;;;;;782941;177;925880;-69
2021/09/25 06:49:28;;;;;;;8.10;7.22;;;;;;;;;;785167;177;925280;-68
2021/09/25 06:51:53;;;;;;;9.90;7.73;;;;;;;;;;776409;178;918582;-69
2021/09/25 06:54:19;;;;;;;8.67;7.33;;;;;;;;;;776989;178;919487;-69
2021/09/25 06:56:45;;;;;;;8.67;7.77;;;;;;;;;;777337;178;918686;-70
2021/09/25 06:59:11;;;;;;;9.97;8.97;;;;;;;;;;780650;179;918444;-69
2021/09/25 07:01:37;;;;;;;17.60;10.83;;;;;;;;;;784619;178;918468;-70
2021/09/25 07:04:03;;;;;;;13.90;9.67;;;;;;;;;;771838;179;919122;-69
2021/09/25 07:06:29;;;;;;;10.67;9.37;;;;;;;;;;773357;179;919096;-68
2021/09/25 07:08:54;;;;;;;12.70;9.73;;;;;;;;;;770972;179;919789;-69
2021/09/25 07:11:20;;;;;;;10.80;8.17;;;;;;;;;;763957;179;919257;-69
2021/09/25 07:13:46;;;;;;;12.93;8.67;;;;;;;;;;772818;180;626767;-69
2021/09/25 07:16:12;;;;;;;11.83;8.83;;;;;;;;;;784866;176;918854;-69
2021/09/25 07:18:40;;;;;;;12.00;9.67;;;;;;;;;;774379;180;918964;-70
2021/09/25 07:21:06;;;;;;;10.93;8.87;;;;;;;;;;767122;179;918105;-71
2021/09/25 07:23:31;;;;;;;14.27;9.30;;;;;;;;;;769973;179;919740;-68
2021/09/25 07:25:58;;;;;;;12.33;9.40;;;;;;;;;;770045;177;1210086;-71
2021/09/25 07:28:23;;;;;;;13.13;9.67;;;;;;;;;;768727;178;918192;-69
2021/09/25 07:30:49;;;;;;;12.13;8.97;;;;;;;;;;781055;179;1009764;-69
2021/09/25 07:33:16;;;;;;;9.10;7.70;;;;;;;;;;767334;180;918329;-69
2021/09/25 07:35:41;;;;;;;9.60;8.13;;;;;;;;;;767792;180;914937;-70
2021/09/25 07:38:06;;;;;;;10.53;8.13;;;;;;;;;;776215;179;914496;-70
2021/09/25 07:40:32;;;;;;;11.60;9.30;;;;;;;;;;767367;181;915940;-68
2021/09/25 07:42:58;;;;;;;10.07;7.80;;;;;;;;;;768935;179;915585;-69
2021/09/25 07:45:24;;;;;;;12.00;8.83;;;;;;;;;;764007;179;915812;-68
2021/09/25 07:47:50;;;;;;;10.33;8.10;;;;;;;;;;784478;174;908133;-70
2021/09/25 07:50:16;;;;;;;9.57;8.07;;;;;;;;;;767077;179;917107;-69
2021/09/25 07:52:42;;;;;;;10.87;8.30;;;;;;;;;;769332;179;919010;-68
2021/09/25 07:55:08;;;;;;;12.93;8.13;;;;;;;;;;773281;179;919527;-68
2021/09/25 07:57:34;;;;;;;10.40;8.13;;;;;;;;;;768417;180;920022;-68
2021/09/25 08:00:00;;;;;;;12.30;8.00;;;;;;;;;;780605;175;919027;-68
2021/09/25 08:02:25;;;;;;;13.93;9.17;;;;;;;;;;778134;179;918672;-68
2021/09/25 08:04:51;;;;;;;10.90;8.57;;;;;;;;;;779719;178;918781;-69
2021/09/25 08:07:17;;;;;;;12.48;8.88;;;;;;;;;;778546;177;1022119;-68
2021/09/25 08:09:43;;;;;;;13.60;9.23;;;;;;;;;;772160;179;919348;-68
2021/09/25 08:12:09;;;;;;;10.77;9.00;;;;;;;;;;775143;179;919024;-69
2021/09/25 08:14:35;;;;;;;9.43;7.93;;;;;;;;;;779581;178;918378;-68
2021/09/25 08:17:01;;;;;;;11.63;8.70;;;;;;;;;;777188;178;918509;-69
2021/09/25 08:19:26;;;;;;;13.83;9.83;;;;;;;;;;770822;180;1026670;-68
2021/09/25 08:21:52;;;;;;;12.70;8.70;;;;;;;;;;772826;177;919259;-68
2021/09/25 08:24:18;;;;;;;13.40;7.00;;;;;;;;;;767492;179;919586;-68
2021/09/25 08:26:44;;;;;;;14.23;9.10;;;;;;;;;;765858;182;918633;-68
2021/09/25 08:29:10;;;;;;;11.60;8.90;;;;;;;;;;761966;181;924864;-69
2021/09/25 08:31:36;;;;;;;12.37;8.40;;;;;;;;;;779352;178;921392;-68
2021/09/25 08:34:02;;;;;;;10.30;8.00;;;;;;;;;;781311;178;918006;-68
2021/09/25 08:36:27;;;;;;;16.43;8.90;;;;;;;;;;761252;181;922100;-68
2021/09/25 08:38:53;;;;;;;11.73;9.17;;;;;;;;;;771618;179;920275;-69
2021/09/25 08:41:19;;;;;;;11.10;8.82;;;;;;;;;;778407;178;918953;-67
2021/09/25 08:43:45;;;;;;;11.17;8.87;;;;;;;;;;782686;178;919474;-68
2021/09/25 08:46:13;;;;;;;10.10;8.70;;;;;;;;;;766784;180;918418;-68
2021/09/25 08:48:38;;;;;;;11.50;8.37;;;;;;;;;;782072;175;896930;-69
2021/09/25 08:51:02;;;;;;;10.30;7.70;;;;;;;;;;788051;175;629968;-69
2021/09/25 08:53:28;;;;;;;12.10;9.07;;;;;;;;;;777558;177;637979;-69
2021/09/25 08:55:54;;;;;;;15.50;8.40;;;;;;;;;;782882;178;702786;-69
2021/09/25 09:01:18;;;;;;;9.30;8.20;;;;;;;;;;710452;176;624578;-68
2021/09/25 09:03:46;;;;;;;13.60;8.97;;;;;;;;;;767358;182;817984;-69
2021/09/25 09:06:12;;;;;;;10.67;8.30;;;;;;;;;;755359;182;921820;-69
2021/09/25 09:08:38;;;;;;;9.90;8.00;;;;;;;;;;733648;188;922088;-69
2021/09/25 09:11:05;;;;;;;10.70;8.20;;;;;;;;;;761541;183;917931;-68
2021/09/25 09:13:29;;;;;;;10.10;8.07;;;;;;;;;;753193;185;1172061;-69
2021/09/25 09:15:55;;;;;;;12.23;9.03;;;;;;;;;;745885;184;918816;-69
2021/09/25 09:18:21;;;;;;;11.47;9.30;;;;;;;;;;760737;183;639158;-68
2021/09/25 09:20:53;;;;;;;12.33;8.60;;;;;;;;;;763110;183;914961;-68
2021/09/25 09:23:19;;;;;;;9.27;7.90;;;;;;;;;;765046;180;917089;-69
2021/09/25 09:25:44;;;;;;;13.80;9.10;;;;;;;;;;765116;180;919217;-70
2021/09/25 09:28:10;;;;;;;14.77;9.40;;;;;;;;;;767681;180;916000;-68
2021/09/25 09:30:36;;;;;;;11.87;9.27;;;;;;;;;;769234;180;914829;-69
2021/09/25 09:33:02;;;;;;;11.70;8.47;;;;;;;;;;743055;185;913290;-69
2021/09/25 09:35:28;;;;;;;13.83;8.87;;;;;;;;;;747886;184;914349;-69
2021/09/25 09:37:55;;;;;;;10.23;8.30;;;;;;;;;;734334;190;915860;-69
2021/09/25 09:40:19;;;;;;;14.00;9.00;;;;;;;;;;747751;185;916222;-69
2021/09/25 09:42:45;;;;;;;10.20;7.80;;;;;;;;;;747257;185;916192;-68
2021/09/25 09:45:11;;;;;;;9.57;8.47;;;;;;;;;;758416;183;913982;-68
2021/09/25 09:47:44;;;;;;;13.03;9.07;;;;;;;;;;758539;183;915793;-69
2021/09/25 09:50:09;;;;;;;12.43;9.17;;;;;;;;;;766280;180;1096287;-70
2021/09/25 09:52:35;;;;;;;13.03;8.13;;;;;;;;;;765914;180;918543;-68
2021/09/25 09:55:00;;;;;;;10.53;8.07;;;;;;;;;;767565;181;1017210;-68
2021/09/25 09:57:28;;;;;;;12.87;8.60;;;;;;;;;;754620;183;919300;-69
2021/09/25 09:59:53;;;;;;;10.27;7.53;;;;;;;;;;747169;185;628284;-70
2021/09/25 10:02:18;;;;;;;11.37;8.23;;;;;;;;;;762058;183;918060;-69
2021/09/25 10:04:44;;;;;;;12.87;7.97;;;;;;;;;;748802;184;623682;-68
2021/09/25 10:07:10;;;;;;;12.10;8.80;;;;;;;;;;748951;184;632428;-69
2021/09/25 10:09:35;;;;;;;9.33;8.23;;;;;;;;;;756561;184;630169;-68
2021/09/25 10:12:01;;;;;;;10.67;7.73;;;;;;;;;;743355;187;620133;-69
2021/09/25 10:14:27;;;;;;;9.50;8.37;;;;;;;;;;761398;183;643593;-69
2021/09/25 10:16:53;;;;;;;9.63;8.30;;;;;;;;;;766269;183;623440;-69
2021/09/25 10:19:19;;;;;;;12.23;8.80;;;;;;;;;;767503;181;611598;-69
2021/09/25 10:21:45;;;;;;;8.10;6.87;;;;;;;;;;758764;183;626767;-70
2021/09/25 10:24:11;;;;;;;9.07;6.60;;;;;;;;;;763803;183;630595;-70
2021/09/25 10:26:38;;;;;;;8.50;6.77;;;;;;;;;;771027;182;616459;-69
2021/09/25 10:29:03;;;;;;;8.13;5.77;;;;;;;;;;770634;180;908414;-69
2021/09/25 10:31:29;;;;;;;9.53;5.97;;;;;;;;;;763061;180;919656;-69
2021/09/25 10:34:01;;;;;;;6.80;6.20;;;;;;;;;;757535;184;918617;-68
2021/09/25 10:36:43;;;;;;;7.25;6.07;;;;;;;;;;768930;180;941463;-68
2021/09/25 10:39:15;;;;;;;6.43;5.53;;;;;;;;;;774152;180;919055;-68
2021/09/25 10:41:41;;;;;;;7.70;6.13;;;;;;;;;;769734;180;919425;-68
2021/09/25 10:44:07;;;;;;;6.43;5.47;;;;;;;;;;761844;182;919395;-68
2021/09/25 10:46:33;;;;;;;6.73;5.37;;;;;;;;;;757005;183;1021085;-69
2021/09/25 10:48:59;;;;;;;5.50;4.70;;;;;;;;;;764575;183;920368;-69
2021/09/25 10:51:25;;;;;;;6.57;4.80;;;;;;;;;;747482;187;919548;-69
2021/09/25 10:53:51;;;;;;;10.00;5.10;;;;;;;;;;758375;183;962021;-68
2021/09/25 10:56:17;;;;;;;6.27;5.47;;;;;;;;;;757512;183;919473;-68
2021/09/25 10:58:43;;;;;;;6.03;5.37;;;;;;;;;;759987;184;919110;-69
2021/09/25 11:01:10;;;;;;;5.77;4.93;;;;;;;;;;752336;184;920398;-69
2021/09/25 11:03:55;;;;;;;7.17;5.13;;;;;;;;;;762483;183;920834;-69
2021/09/25 11:06:23;;;;;;;5.03;4.50;;;;;;;;;;776111;180;918801;-70
2021/09/25 11:09:00;;;;;;;7.50;5.17;;;;;;;;;;774324;181;919048;-70
2021/09/25 11:11:38;;;;;;;6.50;5.20;;;;;;;;;;763878;181;919018;-70
2021/09/25 11:14:04;;;;;;;5.37;4.57;;;;;;;;;;762439;184;919879;-70
2021/09/25 11:16:36;;;;;;;5.10;4.27;;;;;;;;;;759164;184;917305;-69
2021/09/25 11:19:02;;;;;;;11.17;5.47;;;;;;;;;;747754;187;1023238;-70
2021/09/25 11:21:28;;;;;;;6.50;5.27;;;;;;;;;;763391;182;918637;-69
2021/09/25 11:23:54;;;;;;;6.60;4.40;;;;;;;;;;766175;182;919674;-69
2021/09/25 11:26:19;;;;;;;6.33;4.70;;;;;;;;;;757574;182;919654;-70
2021/09/25 11:28:45;;;;;;;5.40;4.10;;;;;;;;;;762961;184;920365;-70
2021/09/25 11:31:11;;;;;;;6.20;4.90;;;;;;;;;;747295;184;918685;-70
2021/09/25 11:33:37;;;;;;;6.00;4.67;;;;;;;;;;744326;183;920410;-68
2021/09/25 11:36:06;;;;;;;5.87;5.17;;;;;;;;;;735963;188;916389;-71
2021/09/25 11:38:31;;;;;;;5.27;4.30;;;;;;;;;;754252;183;920712;-68
2021/09/25 11:40:58;;;;;;;7.87;5.17;;;;;;;;;;757851;183;916264;-69
2021/09/25 11:43:23;;;;;;;6.53;5.13;;;;;;;;;;761990;183;915901;-70
2021/09/25 11:45:50;;;;;;;5.97;4.80;;;;;;;;;;763324;183;916294;-70
2021/09/25 11:48:16;;;;;;;6.00;4.40;;;;;;;;;;750525;183;917090;-70
2021/09/25 11:50:42;;;;;;;6.87;5.78;;;;;;;;;;761539;183;914689;-70
2021/09/25 11:53:07;;;;;;;7.97;5.00;;;;;;;;;;767959;183;919613;-70
2021/09/25 11:55:33;;;;;;;7.60;5.00;;;;;;;;;;762390;183;918197;-70
2021/09/25 11:57:59;;;;;;;6.67;4.77;;;;;;;;;;762569;183;916125;-69
2021/09/25 12:00:36;;;;;;;8.43;4.57;;;;;;;;;;766012;181;916065;-70
2021/09/25 12:03:02;;;;;;;5.30;4.13;;;;;;;;;;753247;183;914919;-70
2021/09/25 12:05:34;;;;;;;7.00;4.70;;;;;;;;;;758935;183;1015284;-71
2021/09/25 12:07:59;;;;;;;8.07;5.20;;;;;;;;;;761009;183;919972;-70
2021/09/25 12:10:25;;;;;;;6.47;4.80;;;;;;;;;;760491;183;1022343;-70
2021/09/25 12:12:53;;;;;;;6.63;5.27;;;;;;;;;;762636;180;923666;-70
2021/09/25 12:15:21;;;;;;;6.30;5.10;;;;;;;;;;756729;183;919111;-70
2021/09/25 12:17:47;;;;;;;7.53;4.13;;;;;;;;;;760623;183;919438;-71
2021/09/25 12:20:14;;;;;;;7.13;4.03;;;;;;;;;;762860;183;919210;-70
2021/09/25 12:22:44;;;;;;;6.87;4.37;;;;;;;;;;759046;183;935413;-71
2021/09/25 12:25:06;;;;;;;9.57;4.23;;;;;;;;;;762578;183;919095;-69
2021/09/25 12:27:32;;;;;;;4.87;4.30;;;;;;;;;;762071;183;913657;-70
2021/09/25 12:29:58;;;;;;;7.07;4.57;;;;;;;;;;761547;183;918830;-70
2021/09/25 12:32:24;;;;;;;7.20;4.78;;;;;;;;;;754330;183;919131;-71
2021/09/25 12:34:50;;;;;;;5.22;4.12;;;;;;;;;;761390;183;918487;-70
2021/09/25 12:37:15;;;;;;;4.67;4.10;;;;;;;;;;766960;183;918553;-70
2021/09/25 12:39:44;;;;;;;11.30;4.63;;;;;;;;;;759511;183;919157;-71
2021/09/25 12:42:08;;;;;;;5.65;4.57;;;;;;;;;;760837;181;920631;-71
2021/09/25 12:44:35;;;;;;;8.93;4.83;;;;;;;;;;766195;183;920496;-72
2021/09/25 12:46:59;;;;;;;5.63;4.10;;;;;;;;;;764680;181;919849;-70
2021/09/25 12:49:25;;;;;;;7.10;4.87;;;;;;;;;;762898;183;919789;-71
2021/09/25 12:51:51;;;;;;;7.03;3.80;;;;;;;;;;767255;183;920120;-70
2021/09/25 12:54:17;;;;;;;5.67;4.27;;;;;;;;;;754267;186;919344;-71
2021/09/25 12:56:45;;;;;;;5.90;5.10;;;;;;;;;;731648;190;1022732;-70
2021/09/25 12:59:11;;;;;;;8.03;5.20;;;;;;;;;;742038;186;919682;-71
2021/09/25 13:01:36;;;;;;;11.60;4.87;;;;;;;;;;749473;182;916031;-71
2021/09/25 13:04:08;;;;;;;7.17;4.57;;;;;;;;;;736616;187;916303;-70
2021/09/25 13:06:34;;;;;;;6.97;4.35;;;;;;;;;;757254;183;916653;-70
2021/09/25 13:09:00;;;;;;;5.70;4.20;;;;;;;;;;761164;183;916485;-72
2021/09/25 13:11:26;;;;;;;8.10;4.30;;;;;;;;;;742821;184;916033;-71
2021/09/25 13:13:57;;;;;;;7.63;4.87;;;;;;;;;;732804;187;919620;-71
2021/09/25 13:16:23;;;;;;;6.32;4.90;;;;;;;;;;754214;183;919677;-71
2021/09/25 13:18:50;;;;;;;4.80;4.30;;;;;;;;;;757927;183;914643;-70
2021/09/25 13:21:15;;;;;;;4.83;4.33;;;;;;;;;;758386;184;919112;-71
2021/09/25 13:23:41;;;;;;;10.60;4.40;;;;;;;;;;756090;183;918957;-71
2021/09/25 13:26:07;;;;;;;5.12;4.60;;;;;;;;;;762079;183;934333;-70
2021/09/25 13:28:33;;;;;;;6.57;4.67;;;;;;;;;;748454;183;919009;-70
2021/09/25 13:30:59;;;;;;;8.67;5.60;;;;;;;;;;726282;187;919534;-70
2021/09/25 13:33:24;;;;;;;7.80;5.93;;;;;;;;;;758249;184;919173;-71
2021/09/25 13:35:50;;;;;;;8.50;4.87;;;;;;;;;;762592;184;918187;-71
2021/09/25 13:38:16;;;;;;;5.35;4.07;;;;;;;;;;756101;184;919135;-70
2021/09/25 13:40:42;;;;;;;10.60;5.53;;;;;;;;;;759035;184;923448;-71
2021/09/25 13:43:08;;;;;;;7.63;5.67;;;;;;;;;;761349;184;919679;-71
2021/09/25 13:45:34;;;;;;;7.70;4.63;;;;;;;;;;752705;183;1021169;-71
2021/09/25 13:47:59;;;;;;;5.93;5.30;;;;;;;;;;747282;184;919516;-71
2021/09/25 13:50:25;;;;;;;12.20;5.17;;;;;;;;;;753535;184;918028;-71
2021/09/25 13:52:51;;;;;;;7.23;4.30;;;;;;;;;;746417;183;918286;-71
2021/09/25 13:55:17;;;;;;;6.20;4.50;;;;;;;;;;737354;186;918938;-71
2021/09/25 13:57:43;;;;;;;7.53;4.50;;;;;;;;;;760934;183;918818;-71
2021/09/25 14:00:09;;;;;;;9.80;4.50;;;;;;;;;;760732;183;918990;-72
2021/09/25 14:02:35;;;;;;;5.90;4.90;;;;;;;;;;760031;183;1023378;-71
2021/09/25 14:05:01;;;;;;;6.13;4.30;;;;;;;;;;758726;183;919140;-72
2021/09/25 14:07:26;;;;;;;6.40;4.67;;;;;;;;;;759944;183;920134;-71
2021/09/25 14:09:53;;;;;;;7.57;4.90;;;;;;;;;;761791;183;917546;-70
2021/09/25 14:12:18;;;;;;;8.60;5.67;;;;;;;;;;755226;183;916012;-71
2021/09/25 14:14:44;;;;;;;5.73;4.30;;;;;;;;;;750021;187;918425;-71
2021/09/25 14:17:10;;;;;;;7.03;5.70;;;;;;;;;;744839;184;914778;-71
2021/09/25 14:19:36;;;;;;;7.83;4.90;;;;;;;;;;745178;184;921035;-70